createdAt,value
2022-10-23T00:01:55.658Z,80.45
2022-10-23T00:04:40.908Z,79.28
2022-10-23T00:07:18.457Z,79.48
2022-10-23T00:10:08.566Z,80.49
2022-10-23T00:12:51.007Z,80.48
2022-10-23T00:15:44.587Z,80.32
2022-10-23T00:18:44.343Z,80.23
2022-10-23T00:21:24.388Z,80.69
2022-10-23T00:24:04.206Z,80.04
2022-10-23T00:26:43.842Z,80.47
2022-10-23T00:29:36.442Z,80.58
2022-10-23T00:35:08.205Z,80.61
2022-10-23T00:37:34.759Z,79.74
2022-10-23T00:40:03.704Z,79.53
2022-10-23T00:42:36.027Z,79.16
2022-10-23T00:45:13.947Z,80.00
2022-10-23T00:47:49.371Z,79.31
2022-10-23T00:50:16.699Z,80.16
2022-10-23T00:52:48.270Z,80.02
2022-10-23T00:55:16.227Z,80.49
2022-10-23T00:57:45.275Z,79.71
2022-10-23T01:00:23.907Z,79.82
2022-10-23T01:02:51.621Z,79.91
2022-10-23T01:05:36.377Z,79.39
2022-10-23T01:08:23.066Z,79.45
2022-10-23T01:10:57.536Z,79.79
2022-10-23T01:13:48.777Z,79.33
2022-10-23T01:16:23.646Z,79.41
2022-10-23T01:19:21.056Z,79.29
2022-10-23T01:21:53.706Z,79.32
2022-10-23T01:24:56.797Z,79.44
2022-10-23T01:27:30.928Z,78.63
2022-10-23T01:30:07.418Z,79.03
2022-10-23T01:32:54.838Z,79.56
2022-10-23T01:35:29.130Z,78.88
2022-10-23T01:38:14.419Z,79.84
2022-10-23T01:40:50.799Z,80.17
2022-10-23T01:43:24.515Z,79.96
2022-10-23T01:45:57.761Z,80.36
2022-10-23T01:48:28.968Z,80.78
2022-10-23T01:50:58.837Z,80.85
2022-10-23T01:53:30.693Z,80.54
2022-10-23T01:56:01.638Z,81.36
2022-10-23T01:58:30.666Z,81.54
2022-10-23T02:01:02.787Z,81.12
2022-10-23T02:03:33.180Z,80.65
2022-10-23T02:05:59.871Z,80.07
2022-10-23T02:08:26.710Z,80.80
2022-10-23T02:11:04.793Z,80.72
2022-10-23T02:13:56.557Z,79.79
2022-10-23T02:17:06.152Z,79.18
2022-10-23T02:19:42.759Z,79.89
2022-10-23T02:22:13.297Z,80.01
2022-10-23T02:24:49.109Z,80.56
2022-10-23T02:27:31.825Z,79.69
2022-10-23T02:30:08.391Z,79.47
2022-10-23T02:32:39.214Z,80.35
2022-10-23T02:35:06.710Z,80.37
2022-10-23T02:37:33.723Z,78.93
2022-10-23T02:40:03.945Z,79.53
2022-10-23T02:43:14.287Z,78.95
2022-10-23T02:46:18.869Z,79.27
2022-10-23T02:48:53.888Z,80.24
2022-10-23T02:51:52.845Z,79.13
2022-10-23T02:54:37.838Z,79.69
2022-10-23T02:57:31.307Z,79.33
2022-10-23T03:00:05.439Z,80.69
2022-10-23T03:02:35.029Z,79.31
2022-10-23T03:05:03.057Z,80.59
2022-10-23T03:07:34.343Z,81.17
2022-10-23T03:10:06.326Z,79.72
2022-10-23T03:12:33.488Z,80.25
2022-10-23T03:15:00.262Z,80.83
2022-10-23T03:17:26.822Z,80.70
2022-10-23T03:19:57.437Z,80.32
2022-10-23T03:22:23.967Z,80.52
2022-10-23T03:24:50.542Z,79.80
2022-10-23T03:27:17.721Z,80.44
2022-10-23T03:29:44.266Z,80.28
2022-10-23T03:32:10.830Z,80.38
2022-10-23T03:34:37.850Z,79.78
2022-10-23T03:37:05.085Z,80.25
2022-10-23T03:39:31.638Z,80.15
2022-10-23T03:41:58.335Z,79.72
2022-10-23T03:44:24.855Z,78.79
2022-10-23T03:46:51.513Z,79.45
2022-10-23T03:49:18.044Z,79.85
2022-10-23T03:51:51.715Z,79.85
2022-10-23T03:54:28.203Z,79.90
2022-10-23T03:56:57.388Z,79.77
2022-10-23T03:59:26.460Z,80.29
2022-10-23T04:01:53.761Z,80.58
2022-10-23T04:04:20.425Z,80.55
2022-10-23T04:06:47.639Z,79.93
2022-10-23T04:09:14.433Z,80.41
2022-10-23T04:11:41.482Z,80.75
2022-10-23T04:14:11.967Z,80.27
2022-10-23T04:16:38.831Z,80.70
2022-10-23T04:19:06.398Z,79.33
2022-10-23T04:21:32.989Z,79.43
2022-10-23T04:24:00.617Z,80.46
2022-10-23T04:26:28.164Z,80.31
2022-10-23T04:28:54.733Z,79.78
2022-10-23T04:31:21.302Z,79.42
2022-10-23T04:33:48.318Z,79.33
2022-10-23T04:36:31.710Z,80.41
2022-10-23T04:39:16.866Z,79.80
2022-10-23T04:41:43.404Z,80.03
2022-10-23T04:44:10.009Z,79.63
2022-10-23T04:46:38.533Z,79.68
2022-10-23T04:49:05.283Z,79.98
2022-10-23T04:51:54.626Z,80.39
2022-10-23T04:54:48.146Z,79.15
2022-10-23T04:57:26.290Z,79.88
2022-10-23T05:00:06.419Z,79.90
2022-10-23T05:02:51.649Z,80.51
2022-10-23T05:05:19.946Z,79.68
2022-10-23T05:08:12.262Z,80.29
2022-10-23T05:11:03.003Z,80.51
2022-10-23T05:13:29.616Z,80.95
2022-10-23T05:15:59.018Z,80.86
2022-10-23T05:18:34.739Z,81.25
2022-10-23T05:21:26.960Z,79.82
2022-10-23T05:23:54.738Z,81.13
2022-10-23T05:26:22.448Z,81.14
2022-10-23T05:28:51.838Z,81.10
2022-10-23T05:31:20.773Z,80.25
2022-10-23T05:33:50.901Z,80.40
2022-10-23T05:36:20.072Z,80.52
2022-10-23T05:38:49.907Z,80.65
2022-10-23T05:41:18.264Z,81.02
2022-10-23T05:43:46.204Z,80.90
2022-10-23T05:46:31.539Z,80.56
2022-10-23T05:49:17.006Z,80.09
2022-10-23T05:52:13.031Z,81.04
2022-10-23T05:54:58.055Z,80.96
2022-10-23T05:58:07.984Z,81.26
2022-10-23T06:00:54.588Z,80.85
2022-10-23T06:03:58.465Z,80.22
2022-10-23T06:06:34.271Z,80.93
2022-10-23T06:09:01.737Z,80.78
2022-10-23T06:11:28.590Z,80.78
2022-10-23T06:14:01.039Z,81.25
2022-10-23T06:16:27.975Z,81.40
2022-10-23T06:18:55.052Z,81.05
2022-10-23T06:21:22.002Z,81.50
2022-10-23T06:23:50.755Z,80.83
2022-10-23T06:26:23.551Z,81.82
2022-10-23T06:28:56.335Z,81.67
2022-10-23T06:31:26.825Z,80.95
2022-10-23T06:33:56.118Z,80.65
2022-10-23T06:36:23.106Z,81.13
2022-10-23T06:38:52.071Z,81.71
2022-10-23T06:41:22.050Z,80.96
2022-10-23T06:43:54.305Z,81.52
2022-10-23T06:46:28.674Z,81.89
2022-10-23T06:49:33.903Z,81.59
2022-10-23T06:52:01.877Z,81.51
2022-10-23T06:54:28.484Z,81.36
2022-10-23T06:57:27.627Z,82.72
2022-10-23T06:59:54.383Z,81.73
2022-10-23T07:02:21.296Z,82.38
2022-10-23T07:04:48.255Z,82.33
2022-10-23T07:07:18.365Z,82.90
2022-10-23T07:09:47.755Z,82.38
2022-10-23T07:12:28.378Z,83.02
2022-10-23T07:15:15.820Z,82.00
2022-10-23T07:17:43.168Z,82.22
2022-10-23T07:20:09.826Z,83.29
2022-10-23T07:22:36.592Z,82.13
2022-10-23T07:25:10.544Z,82.60
2022-10-23T07:27:39.191Z,82.37
2022-10-23T07:30:08.693Z,82.15
2022-10-23T07:32:45.456Z,82.60
2022-10-23T07:35:33.012Z,82.16
2022-10-23T07:38:06.750Z,83.37
2022-10-23T07:40:37.325Z,82.71
2022-10-23T07:43:04.850Z,82.39
2022-10-23T07:45:31.520Z,82.65
2022-10-23T07:48:05.284Z,82.90
2022-10-23T07:50:48.717Z,83.18
2022-10-23T07:53:18.467Z,82.35
2022-10-23T07:55:57.895Z,83.08
2022-10-23T07:58:27.715Z,83.21
2022-10-23T08:01:20.776Z,82.39
2022-10-23T08:03:47.536Z,82.92
2022-10-23T08:06:15.434Z,82.26
2022-10-23T08:08:43.041Z,82.73
2022-10-23T08:11:13.875Z,82.40
2022-10-23T08:13:48.523Z,82.81
2022-10-23T08:16:15.882Z,81.72
2022-10-23T08:19:01.477Z,82.13
2022-10-23T08:21:29.284Z,81.80
2022-10-23T08:23:57.475Z,81.76
2022-10-23T08:26:25.342Z,81.53
2022-10-23T08:28:52.948Z,81.67
2022-10-23T08:31:21.197Z,80.54
2022-10-23T08:34:18.828Z,81.07
2022-10-23T08:36:47.337Z,81.20
2022-10-23T08:39:14.384Z,80.82
2022-10-23T08:41:53.202Z,80.65
2022-10-23T08:44:32.478Z,79.57
2022-10-23T08:47:13.362Z,79.34
2022-10-23T08:49:56.370Z,79.18
2022-10-23T08:52:34.488Z,78.48
2022-10-23T08:55:17.563Z,78.23
2022-10-23T08:57:59.034Z,78.69
2022-10-23T09:00:25.788Z,79.13
2022-10-23T09:02:55.318Z,78.16
2022-10-23T09:05:21.899Z,77.67
2022-10-23T09:07:57.462Z,78.13
2022-10-23T09:10:48.101Z,76.82
2022-10-23T09:13:45.319Z,77.14
2022-10-23T09:16:19.547Z,77.11
2022-10-23T09:18:48.233Z,77.49
2022-10-23T09:21:14.869Z,76.57
2022-10-23T09:23:42.022Z,76.29
2022-10-23T09:26:17.089Z,75.64
2022-10-23T09:28:51.956Z,75.73
2022-10-23T09:31:19.699Z,75.76
2022-10-23T09:34:01.195Z,74.46
2022-10-23T09:36:29.500Z,74.74
2022-10-23T09:39:00.381Z,73.12
2022-10-23T09:41:39.258Z,73.93
2022-10-23T09:44:08.846Z,74.42
2022-10-23T09:46:43.249Z,73.80
2022-10-23T09:49:35.658Z,72.74
2022-10-23T09:52:07.032Z,74.89
2022-10-23T09:54:38.138Z,73.12
2022-10-23T09:57:22.416Z,73.72
2022-10-23T10:00:01.897Z,71.80
2022-10-23T10:02:38.491Z,72.37
2022-10-23T10:05:33.292Z,72.14
2022-10-23T10:08:44.203Z,70.79
2022-10-23T10:11:20.498Z,71.19
2022-10-23T10:14:11.889Z,69.67
2022-10-23T10:16:57.407Z,70.41
2022-10-23T10:19:42.732Z,71.27
2022-10-23T10:22:28.418Z,70.17
2022-10-23T10:25:21.602Z,69.92
2022-10-23T10:28:06.705Z,70.04
2022-10-23T10:30:43.194Z,69.67
2022-10-23T10:33:21.960Z,69.43
2022-10-23T10:36:02.292Z,69.88
2022-10-23T10:39:03.726Z,70.56
2022-10-23T10:42:04.194Z,69.79
2022-10-23T10:45:08.066Z,70.35
2022-10-23T10:47:51.678Z,69.59
2022-10-23T10:50:52.241Z,69.20
2022-10-23T10:54:03.893Z,68.85
2022-10-23T10:56:35.109Z,69.56
2022-10-23T10:59:06.763Z,68.77
2022-10-23T11:01:41.653Z,68.21
2022-10-23T11:04:24.818Z,68.14
2022-10-23T11:06:53.976Z,68.20
2022-10-23T11:09:25.026Z,67.94
2022-10-23T11:11:51.616Z,67.67
2022-10-23T11:14:21.900Z,67.25
2022-10-23T11:16:51.888Z,66.62
2022-10-23T11:19:27.511Z,66.33
2022-10-23T11:22:02.493Z,67.18
2022-10-23T11:24:57.215Z,67.25
2022-10-23T11:27:52.196Z,66.12
2022-10-23T11:30:23.995Z,66.44
2022-10-23T11:33:24.522Z,66.06
2022-10-23T11:36:01.165Z,66.10
2022-10-23T11:38:37.338Z,65.75
2022-10-23T11:41:16.282Z,65.97
2022-10-23T11:43:57.357Z,66.02
2022-10-23T11:46:25.334Z,66.68
2022-10-23T11:48:54.016Z,64.96
2022-10-23T11:51:34.381Z,64.62
2022-10-23T11:54:10.241Z,65.21
2022-10-23T11:57:10.810Z,64.46
2022-10-23T11:59:49.506Z,64.35
2022-10-23T12:02:38.227Z,63.73
2022-10-23T12:05:25.997Z,64.87
2022-10-23T12:08:06.763Z,64.24
2022-10-23T12:10:36.891Z,64.00
2022-10-23T12:13:06.047Z,65.57
2022-10-23T12:15:34.887Z,65.71
2022-10-23T12:18:15.045Z,64.55
2022-10-23T12:20:56.683Z,64.37
2022-10-23T12:23:48.092Z,63.98
2022-10-23T12:26:45.775Z,63.06
2022-10-23T12:29:30.821Z,63.90
2022-10-23T12:32:30.896Z,64.86
2022-10-23T12:35:03.521Z,64.18
2022-10-23T12:37:57.612Z,64.94
2022-10-23T12:40:30.013Z,65.07
2022-10-23T12:42:59.499Z,64.31
2022-10-23T12:45:29.530Z,64.66
2022-10-23T12:47:56.394Z,63.97
2022-10-23T12:50:29.599Z,63.67
2022-10-23T12:53:03.769Z,62.89
2022-10-23T12:55:52.399Z,63.71
2022-10-23T12:58:25.383Z,63.32
2022-10-23T13:00:58.833Z,63.56
2022-10-23T13:03:27.505Z,62.91
2022-10-23T13:05:58.585Z,62.20
2022-10-23T13:08:33.951Z,61.96
2022-10-23T13:11:21.004Z,62.90
2022-10-23T13:13:50.339Z,62.24
2022-10-23T13:16:22.310Z,62.57
2022-10-23T13:18:49.132Z,62.64
2022-10-23T13:21:23.108Z,62.67
2022-10-23T13:23:51.213Z,62.85
2022-10-23T13:26:25.643Z,63.51
2022-10-23T13:28:52.613Z,63.27
2022-10-23T13:31:25.308Z,63.64
2022-10-23T13:34:01.397Z,65.10
2022-10-23T13:36:31.075Z,65.09
2022-10-23T13:39:09.622Z,65.26
2022-10-23T13:41:46.882Z,65.85
2022-10-23T13:44:16.071Z,65.60
2022-10-23T13:46:43.586Z,65.82
2022-10-23T13:49:10.454Z,65.23
2022-10-23T13:51:42.642Z,65.63
2022-10-23T13:54:28.981Z,65.28
2022-10-23T13:56:56.731Z,65.19
2022-10-23T13:59:23.951Z,63.66
2022-10-23T14:01:51.178Z,64.68
2022-10-23T14:04:18.678Z,64.27
2022-10-23T14:06:45.522Z,64.32
2022-10-23T14:09:14.676Z,64.13
2022-10-23T14:11:41.959Z,63.05
2022-10-23T14:14:08.771Z,63.84
2022-10-23T14:16:35.512Z,64.56
2022-10-23T14:19:02.135Z,63.70
2022-10-23T14:21:28.676Z,63.80
2022-10-23T14:23:55.222Z,63.78
2022-10-23T14:26:24.429Z,64.38
2022-10-23T14:28:55.559Z,63.65
2022-10-23T14:31:22.617Z,63.60
2022-10-23T14:34:00.719Z,64.67
2022-10-23T14:36:34.312Z,65.14
2022-10-23T14:39:10.076Z,64.46
2022-10-23T14:41:37.295Z,64.40
2022-10-23T14:44:03.858Z,65.24
2022-10-23T14:46:40.013Z,64.90
2022-10-23T14:49:27.013Z,66.05
2022-10-23T14:51:53.532Z,65.85
2022-10-23T14:54:20.120Z,65.89
2022-10-23T14:57:02.390Z,66.02
2022-10-23T14:59:37.076Z,65.75
2022-10-23T15:02:12.752Z,65.71
2022-10-23T15:04:40.608Z,65.94
2022-10-23T15:07:12.196Z,66.81
2022-10-23T15:09:56.137Z,66.19
2022-10-23T15:12:28.045Z,66.19
2022-10-23T15:14:54.556Z,66.69
2022-10-23T15:17:23.765Z,66.33
2022-10-23T15:19:50.611Z,66.32
2022-10-23T15:22:19.489Z,66.74
2022-10-23T15:24:47.871Z,66.68
2022-10-23T15:27:22.911Z,67.19
2022-10-23T15:29:54.632Z,67.43
2022-10-23T15:32:21.244Z,66.45
2022-10-23T15:34:52.665Z,67.18
2022-10-23T15:37:24.625Z,66.71
2022-10-23T15:40:01.395Z,67.01
2022-10-23T15:42:29.686Z,67.51
2022-10-23T15:44:56.217Z,67.58
2022-10-23T15:47:25.559Z,67.49
2022-10-23T15:49:52.243Z,67.48
2022-10-23T15:52:18.789Z,67.47
2022-10-23T15:54:45.359Z,68.35
2022-10-23T15:57:16.666Z,68.17
2022-10-23T15:59:43.157Z,67.54
2022-10-23T16:02:19.188Z,68.12
2022-10-23T16:04:45.787Z,68.20
2022-10-23T16:07:18.019Z,68.41
2022-10-23T16:09:47.322Z,68.28
2022-10-23T16:12:25.351Z,68.11
2022-10-23T16:14:55.786Z,68.64
2022-10-23T16:17:31.338Z,68.50
2022-10-23T16:20:00.779Z,68.37
2022-10-23T16:22:27.684Z,68.49
2022-10-23T16:24:54.623Z,68.14
2022-10-23T16:27:27.346Z,68.56
2022-10-23T16:29:54.010Z,69.00
2022-10-23T16:32:20.679Z,69.14
2022-10-23T16:34:47.479Z,69.82
2022-10-23T16:37:14.104Z,69.35
2022-10-23T16:40:05.550Z,70.13
2022-10-23T16:43:10.741Z,69.93
2022-10-23T16:45:43.455Z,70.15
2022-10-23T16:48:10.101Z,70.40
2022-10-23T16:53:11.868Z,70.25
2022-10-23T16:55:40.666Z,70.39
2022-10-23T16:58:07.494Z,70.86
2022-10-23T17:00:35.248Z,71.14
2022-10-23T17:03:04.450Z,70.80
2022-10-23T17:05:34.974Z,71.10
2022-10-23T17:08:01.974Z,71.41
2022-10-23T17:10:28.977Z,71.25
2022-10-23T17:12:55.754Z,71.62
2022-10-23T17:15:23.859Z,71.19
2022-10-23T17:17:50.596Z,71.71
2022-10-23T17:20:17.375Z,72.33
2022-10-23T17:22:43.983Z,72.47
2022-10-23T17:25:10.632Z,72.11
2022-10-23T17:27:37.208Z,72.10
2022-10-23T17:30:07.126Z,72.29
2022-10-23T17:32:36.581Z,73.23
2022-10-23T17:35:07.008Z,72.97
2022-10-23T17:37:35.831Z,72.96
2022-10-23T17:40:02.713Z,72.52
2022-10-23T17:42:39.971Z,72.52
2022-10-23T17:45:07.147Z,73.56
2022-10-23T17:47:40.174Z,73.74
2022-10-23T17:50:11.216Z,73.28
2022-10-23T17:52:48.106Z,73.48
2022-10-23T17:55:27.517Z,74.29
2022-10-23T17:58:01.996Z,73.74
2022-10-23T18:00:49.231Z,73.50
2022-10-23T18:03:20.066Z,74.19
2022-10-23T18:06:07.850Z,73.35
2022-10-23T18:11:55.276Z,73.42
2022-10-23T18:14:46.581Z,74.55
2022-10-23T18:17:16.173Z,74.21
2022-10-23T18:19:42.821Z,74.38
2022-10-23T18:22:09.480Z,74.99
2022-10-23T18:24:37.920Z,74.09
2022-10-23T18:27:04.511Z,74.40
2022-10-23T18:29:31.060Z,74.32
2022-10-23T18:31:57.814Z,75.15
2022-10-23T18:34:27.579Z,74.57
2022-10-23T18:36:54.665Z,74.91
2022-10-23T18:39:26.010Z,74.38
2022-10-23T18:41:55.900Z,74.75
2022-10-23T18:44:30.577Z,74.86
2022-10-23T18:47:07.362Z,74.88
2022-10-23T18:49:33.946Z,74.29
2022-10-23T18:52:00.566Z,74.11
2022-10-23T18:54:27.366Z,75.09
2022-10-23T18:56:53.921Z,74.95
2022-10-23T18:59:22.298Z,74.17
2022-10-23T19:01:49.580Z,74.90
2022-10-23T19:04:17.830Z,74.92
2022-10-23T19:06:46.389Z,75.29
2022-10-23T19:09:13.900Z,74.78
2022-10-23T19:11:41.949Z,75.39
2022-10-23T19:14:08.489Z,75.61
2022-10-23T19:17:01.610Z,74.45
2022-10-23T19:19:36.044Z,75.51
2022-10-23T19:22:04.214Z,76.02
2022-10-23T19:24:36.699Z,74.96
2022-10-23T19:27:04.082Z,75.41
2022-10-23T19:29:31.465Z,75.74
2022-10-23T19:31:58.468Z,75.29
2022-10-23T19:34:25.302Z,75.36
2022-10-23T19:36:53.433Z,75.47
2022-10-23T19:39:20.356Z,75.05
2022-10-23T19:41:47.002Z,74.87
2022-10-23T19:44:15.040Z,75.55
2022-10-23T19:46:41.784Z,75.19
2022-10-23T19:49:09.051Z,75.29
2022-10-23T19:51:35.968Z,76.19
2022-10-23T19:54:02.667Z,76.33
2022-10-23T19:56:29.299Z,76.68
2022-10-23T19:58:55.933Z,76.69
2022-10-23T20:01:25.184Z,75.59
2022-10-23T20:03:52.206Z,76.64
2022-10-23T20:06:21.676Z,76.60
2022-10-23T20:08:48.814Z,76.47
2022-10-23T20:11:20.382Z,76.26
2022-10-23T20:13:48.340Z,76.83
2022-10-23T20:16:27.927Z,77.23
2022-10-23T20:18:54.861Z,76.99
2022-10-23T20:21:22.355Z,76.81
2022-10-23T20:23:49.119Z,76.93
2022-10-23T20:26:18.806Z,76.29
2022-10-23T20:28:47.096Z,76.90
2022-10-23T20:31:15.145Z,76.73
2022-10-23T20:33:42.183Z,76.98
2022-10-23T20:36:17.661Z,76.69
2022-10-23T20:38:44.203Z,76.93
2022-10-23T20:41:10.804Z,77.17
2022-10-23T20:43:38.315Z,77.12
2022-10-23T20:46:06.628Z,76.50
2022-10-23T20:48:40.288Z,78.25
2022-10-23T20:51:16.541Z,78.78
2022-10-23T20:53:44.789Z,78.64
2022-10-23T20:56:29.854Z,78.72
2022-10-23T20:59:01.511Z,78.26
2022-10-23T21:01:29.550Z,78.83
2022-10-23T21:03:57.712Z,79.60
2022-10-23T21:06:26.986Z,78.61
2022-10-23T21:08:58.586Z,78.95
2022-10-23T21:11:25.993Z,79.04
2022-10-23T21:13:53.041Z,78.72
2022-10-23T21:16:26.098Z,79.39
2022-10-23T21:18:56.741Z,80.50
2022-10-23T21:21:24.409Z,79.64
2022-10-23T21:23:53.399Z,79.52
2022-10-23T21:26:22.546Z,80.30
2022-10-23T21:28:56.276Z,81.04
2022-10-23T21:31:27.725Z,80.42
2022-10-23T21:33:54.289Z,80.69
2022-10-23T21:36:23.796Z,80.41
2022-10-23T21:38:52.857Z,81.38
2022-10-23T21:41:25.007Z,80.92
2022-10-23T21:43:57.458Z,80.50
2022-10-23T21:46:25.793Z,81.45
2022-10-23T21:48:53.010Z,80.41
2022-10-23T21:51:26.101Z,80.33
2022-10-23T21:53:56.370Z,80.67
2022-10-23T21:56:28.369Z,81.17
2022-10-23T21:58:55.486Z,81.44
2022-10-23T22:01:22.269Z,80.81
2022-10-23T22:03:49.699Z,80.81
2022-10-23T22:06:20.002Z,81.50
2022-10-23T22:08:46.722Z,81.21
2022-10-23T22:11:14.631Z,80.92
2022-10-23T22:13:42.935Z,81.92
2022-10-23T22:16:10.490Z,82.20
2022-10-23T22:18:37.502Z,81.44
2022-10-23T22:21:08.889Z,82.75
2022-10-23T22:23:36.139Z,81.81
2022-10-23T22:26:08.140Z,82.47
2022-10-23T22:28:34.771Z,82.40
2022-10-23T22:31:01.851Z,82.97
2022-10-23T22:33:29.103Z,82.34
2022-10-23T22:36:03.135Z,81.18
2022-10-23T22:38:31.681Z,79.49
2022-10-23T22:41:02.099Z,78.80
2022-10-23T22:43:29.389Z,78.80
2022-10-23T22:46:07.849Z,78.93
2022-10-23T22:48:35.680Z,77.79
2022-10-23T22:51:03.241Z,77.36
2022-10-23T22:53:30.000Z,76.75
2022-10-23T22:55:57.410Z,77.83
2022-10-23T22:58:24.934Z,77.22
2022-10-23T23:00:53.994Z,77.18
2022-10-23T23:03:20.628Z,76.91
2022-10-23T23:05:47.943Z,76.83
2022-10-23T23:08:15.042Z,76.05
2022-10-23T23:10:41.760Z,75.42
2022-10-23T23:13:08.356Z,75.22
2022-10-23T23:15:40.341Z,74.89
2022-10-23T23:18:06.957Z,74.10
2022-10-23T23:20:34.485Z,74.30
2022-10-23T23:23:01.025Z,74.04
2022-10-23T23:25:27.700Z,72.47
2022-10-23T23:27:54.877Z,71.95
2022-10-23T23:30:21.712Z,72.58
2022-10-23T23:32:51.147Z,71.54
2022-10-23T23:35:19.486Z,71.28
2022-10-23T23:37:46.602Z,72.19
2022-10-23T23:40:14.008Z,70.61
2022-10-23T23:42:40.846Z,71.82
2022-10-23T23:45:14.513Z,70.82
2022-10-23T23:47:41.700Z,70.55
2022-10-23T23:50:10.231Z,70.65
2022-10-23T23:52:36.827Z,71.00
2022-10-23T23:55:04.185Z,71.03
2022-10-23T23:57:30.875Z,71.12
2022-10-23T23:59:57.419Z,70.95
